Time;durP1;ratioP1;P1;durP2;ratioP2;P2;SDS_P1;SDS_P2;PMS_P1;PMS_P2;Temp;Humidity;BMP_temperature;BMP_pressure;BME280_temperature;BME280_humidity;BME280_pressure;Samples;Min_cycle;Max_cycle;Signal;HPM_P1;HPM_P2
2024/01/21 00:01:31;;;;;;;6.55;4.07;;;;;;;;;;5083775;28;20109;-73
2024/01/21 00:04:00;;;;;;;6.82;3.92;;;;;;;;;;5084687;28;20055;-72
2024/01/21 00:06:28;;;;;;;5.07;3.60;;;;;;;;;;5079141;28;20059;-72
2024/01/21 00:08:58;;;;;;;8.18;4.35;;;;;;;;;;5084171;28;20119;-73
2024/01/21 00:11:27;;;;;;;5.18;4.03;;;;;;;;;;5083491;28;20167;-73
2024/01/21 00:13:55;;;;;;;6.60;3.65;;;;;;;;;;5080906;28;20044;-73
2024/01/21 00:16:23;;;;;;;7.43;4.30;;;;;;;;;;5088758;28;20040;-73
2024/01/21 00:18:52;;;;;;;5.72;3.83;;;;;;;;;;5087269;28;20422;-73
2024/01/21 00:21:21;;;;;;;7.68;4.22;;;;;;;;;;5089316;28;20056;-72
2024/01/21 00:23:49;;;;;;;8.55;3.80;;;;;;;;;;5086869;28;20103;-74
2024/01/21 00:26:19;;;;;;;6.15;3.35;;;;;;;;;;5080878;28;20076;-74
2024/01/21 00:28:47;;;;;;;8.63;4.47;;;;;;;;;;5085321;28;20443;-72
2024/01/21 00:31:15;;;;;;;4.45;3.80;;;;;;;;;;5087641;28;20105;-72
2024/01/21 00:33:44;;;;;;;5.75;3.30;;;;;;;;;;5087079;28;20040;-72
2024/01/21 00:36:13;;;;;;;5.38;3.47;;;;;;;;;;5088220;28;20040;-73
2024/01/21 00:38:41;;;;;;;4.28;3.17;;;;;;;;;;5087541;28;20060;-73
2024/01/21 00:41:13;;;;;;;5.32;4.30;;;;;;;;;;5088054;28;20040;-72
2024/01/21 00:43:43;;;;;;;4.05;3.30;;;;;;;;;;5089187;28;20344;-72
2024/01/21 00:46:12;;;;;;;6.25;3.38;;;;;;;;;;5087886;28;20051;-72
2024/01/21 00:48:41;;;;;;;6.22;3.58;;;;;;;;;;5086837;28;20060;-72
2024/01/21 00:51:09;;;;;;;5.00;3.13;;;;;;;;;;5086956;28;20063;-73
2024/01/21 00:53:38;;;;;;;2.95;2.72;;;;;;;;;;5076017;28;20080;-72
2024/01/21 00:56:06;;;;;;;7.70;3.80;;;;;;;;;;5087564;28;20059;-72
2024/01/21 00:58:35;;;;;;;4.15;3.20;;;;;;;;;;5086915;28;20378;-73
2024/01/21 01:01:05;;;;;;;4.13;3.25;;;;;;;;;;5080966;28;20433;-73
2024/01/21 01:03:33;;;;;;;5.78;3.85;;;;;;;;;;5080763;28;20052;-73
2024/01/21 01:06:01;;;;;;;5.60;3.08;;;;;;;;;;5087033;28;20127;-72
2024/01/21 01:08:30;;;;;;;4.97;3.60;;;;;;;;;;5078146;28;20051;-72
2024/01/21 01:10:58;;;;;;;6.97;3.72;;;;;;;;;;5087231;28;20047;-72
2024/01/21 01:13:27;;;;;;;4.60;2.83;;;;;;;;;;5086105;28;20040;-72
2024/01/21 01:15:55;;;;;;;3.50;2.72;;;;;;;;;;5074994;28;20131;-72
2024/01/21 01:18:25;;;;;;;5.90;3.35;;;;;;;;;;5086871;28;20152;-73
2024/01/21 01:20:54;;;;;;;7.03;3.33;;;;;;;;;;5078117;28;20059;-74
2024/01/21 01:23:22;;;;;;;4.28;3.47;;;;;;;;;;5087546;28;20516;-72
2024/01/21 01:25:51;;;;;;;5.03;3.15;;;;;;;;;;5084034;28;20072;-72
2024/01/21 01:28:19;;;;;;;4.03;3.13;;;;;;;;;;5077402;28;20056;-72
2024/01/21 01:30:47;;;;;;;4.68;2.90;;;;;;;;;;5081552;28;20068;-73
2024/01/21 01:33:16;;;;;;;5.57;3.53;;;;;;;;;;5084945;28;20055;-72
2024/01/21 01:35:46;;;;;;;3.38;2.95;;;;;;;;;;5082649;28;20044;-72
2024/01/21 01:38:14;;;;;;;4.43;3.20;;;;;;;;;;5084153;28;20455;-73
2024/01/21 01:40:42;;;;;;;6.32;2.75;;;;;;;;;;5089728;28;20079;-73
2024/01/21 01:43:11;;;;;;;4.50;3.30;;;;;;;;;;5085393;28;20111;-72
2024/01/21 01:45:39;;;;;;;5.15;3.00;;;;;;;;;;5091610;28;20071;-72
2024/01/21 01:48:08;;;;;;;4.90;3.45;;;;;;;;;;5088042;28;20055;-72
2024/01/21 01:50:37;;;;;;;6.88;3.17;;;;;;;;;;5090686;28;20079;-73
2024/01/21 01:53:06;;;;;;;8.55;3.40;;;;;;;;;;5087533;28;20048;-73
2024/01/21 01:55:35;;;;;;;3.60;2.75;;;;;;;;;;5082229;28;20546;-73
2024/01/21 01:58:04;;;;;;;4.63;2.95;;;;;;;;;;5084947;28;20071;-73
2024/01/21 02:00:32;;;;;;;3.97;2.75;;;;;;;;;;5082793;28;20410;-72
2024/01/21 02:03:01;;;;;;;8.35;4.20;;;;;;;;;;5087106;28;20040;-72
2024/01/21 02:05:29;;;;;;;5.93;3.25;;;;;;;;;;5080291;28;20604;-72
2024/01/21 02:07:58;;;;;;;4.53;2.80;;;;;;;;;;5088607;28;20058;-72
2024/01/21 02:10:29;;;;;;;3.42;2.88;;;;;;;;;;5089420;28;20090;-72
2024/01/21 02:12:58;;;;;;;3.33;2.88;;;;;;;;;;5087947;28;20447;-72
2024/01/21 02:15:26;;;;;;;5.80;3.50;;;;;;;;;;5089911;28;20051;-72
2024/01/21 02:17:55;;;;;;;2.88;2.55;;;;;;;;;;5086590;28;20040;-72
2024/01/21 02:20:23;;;;;;;3.15;2.85;;;;;;;;;;5087848;28;20098;-72
2024/01/21 02:22:52;;;;;;;4.05;3.25;;;;;;;;;;5089033;28;20487;-72
2024/01/21 02:25:22;;;;;;;3.75;3.00;;;;;;;;;;5070602;28;20056;-73
2024/01/21 02:27:50;;;;;;;4.72;3.15;;;;;;;;;;5086247;28;20102;-72
2024/01/21 02:30:19;;;;;;;3.42;3.05;;;;;;;;;;5080493;28;20508;-72
2024/01/21 02:32:48;;;;;;;3.50;2.63;;;;;;;;;;5090133;28;20432;-72
2024/01/21 02:35:16;;;;;;;5.18;2.95;;;;;;;;;;5081317;28;20044;-72
2024/01/21 02:37:44;;;;;;;4.13;2.67;;;;;;;;;;5091117;28;20469;-72
2024/01/21 02:40:13;;;;;;;3.92;3.00;;;;;;;;;;5083427;28;20459;-73
2024/01/21 02:42:43;;;;;;;4.90;3.60;;;;;;;;;;5089987;28;20056;-72
2024/01/21 02:45:11;;;;;;;4.35;2.53;;;;;;;;;;5087845;28;20048;-72
2024/01/21 02:47:40;;;;;;;3.85;2.75;;;;;;;;;;5082529;28;20544;-72
2024/01/21 02:50:08;;;;;;;3.28;2.45;;;;;;;;;;5085318;28;20405;-72
2024/01/21 02:52:37;;;;;;;6.65;3.08;;;;;;;;;;5086292;28;20496;-72
2024/01/21 02:55:05;;;;;;;3.20;2.50;;;;;;;;;;5085598;28;20040;-72
2024/01/21 02:57:34;;;;;;;4.45;3.08;;;;;;;;;;5087003;28;20093;-72
2024/01/21 03:00:05;;;;;;;5.85;3.42;;;;;;;;;;5081797;28;20048;-72
2024/01/21 03:02:33;;;;;;;5.28;2.95;;;;;;;;;;5089202;28;20164;-72
2024/01/21 03:05:01;;;;;;;3.25;2.63;;;;;;;;;;5086415;28;20056;-72
2024/01/21 03:07:30;;;;;;;4.68;2.83;;;;;;;;;;5082103;28;20064;-72
2024/01/21 03:09:58;;;;;;;8.73;2.85;;;;;;;;;;5087244;28;20528;-72
2024/01/21 03:12:27;;;;;;;3.72;2.60;;;;;;;;;;5086550;28;20075;-72
2024/01/21 03:14:55;;;;;;;3.33;3.00;;;;;;;;;;5081332;28;20049;-72
2024/01/21 03:17:25;;;;;;;3.83;3.25;;;;;;;;;;5084603;28;20415;-72
2024/01/21 03:19:53;;;;;;;4.32;2.92;;;;;;;;;;5085562;28;20044;-70
2024/01/21 03:22:22;;;;;;;3.30;2.42;;;;;;;;;;5080970;28;20405;-72
2024/01/21 03:24:51;;;;;;;3.78;2.55;;;;;;;;;;5073748;28;20059;-72
2024/01/21 03:27:19;;;;;;;4.22;2.88;;;;;;;;;;5081769;28;20052;-72
2024/01/21 03:29:47;;;;;;;4.82;2.70;;;;;;;;;;5077524;28;20036;-72
2024/01/21 03:32:16;;;;;;;3.47;2.58;;;;;;;;;;5077687;28;20172;-72
2024/01/21 03:34:46;;;;;;;4.20;2.95;;;;;;;;;;5076861;28;20497;-72
2024/01/21 03:37:15;;;;;;;4.63;3.05;;;;;;;;;;5076191;28;20058;-72
2024/01/21 03:39:43;;;;;;;2.55;2.35;;;;;;;;;;5075720;28;20058;-69
2024/01/21 03:42:11;;;;;;;3.13;2.70;;;;;;;;;;5077878;28;20047;-71
2024/01/21 03:44:40;;;;;;;5.20;2.75;;;;;;;;;;5075319;28;20516;-71
2024/01/21 03:47:08;;;;;;;3.05;2.45;;;;;;;;;;5073762;28;20591;-72
2024/01/21 03:49:37;;;;;;;3.40;2.88;;;;;;;;;;5074917;28;20271;-72
2024/01/21 03:52:07;;;;;;;3.38;2.65;;;;;;;;;;5076233;28;20121;-72
2024/01/21 03:54:35;;;;;;;4.43;2.75;;;;;;;;;;5075032;28;20091;-73
2024/01/21 03:57:04;;;;;;;8.18;3.00;;;;;;;;;;5049743;28;20058;-71
2024/01/21 03:59:32;;;;;;;2.88;2.38;;;;;;;;;;5059388;28;20332;-72
2024/01/21 04:02:00;;;;;;;2.75;2.38;;;;;;;;;;5061082;28;20497;-71
2024/01/21 04:04:29;;;;;;;9.77;2.90;;;;;;;;;;5071208;28;20036;-70
2024/01/21 04:06:58;;;;;;;4.40;3.08;;;;;;;;;;5074115;28;20067;-71
2024/01/21 04:09:28;;;;;;;6.10;2.83;;;;;;;;;;5073267;28;20413;-71
2024/01/21 04:11:56;;;;;;;3.15;2.90;;;;;;;;;;5075620;28;20047;-71
2024/01/21 04:14:27;;;;;;;5.78;3.42;;;;;;;;;;5073898;28;20102;-70
2024/01/21 04:16:55;;;;;;;3.15;2.72;;;;;;;;;;5075421;28;20138;-71
2024/01/21 04:19:23;;;;;;;2.70;2.50;;;;;;;;;;5075660;28;20039;-70
2024/01/21 04:21:52;;;;;;;3.80;2.90;;;;;;;;;;5075667;28;20043;-71
2024/01/21 04:24:20;;;;;;;3.08;2.60;;;;;;;;;;5072850;28;20127;-70
2024/01/21 04:26:50;;;;;;;3.75;2.75;;;;;;;;;;5076279;28;20048;-72
2024/01/21 04:29:18;;;;;;;4.05;2.72;;;;;;;;;;5074139;28;20105;-72
2024/01/21 04:31:47;;;;;;;2.85;2.50;;;;;;;;;;5076126;28;20056;-71
2024/01/21 04:34:15;;;;;;;3.70;2.45;;;;;;;;;;5074739;28;20079;-70
2024/01/21 04:36:44;;;;;;;4.22;3.05;;;;;;;;;;5075615;28;20064;-70
2024/01/21 04:39:17;;;;;;;2.65;2.25;;;;;;;;;;5073474;28;20122;-70
2024/01/21 04:41:45;;;;;;;2.78;2.42;;;;;;;;;;5080297;28;20052;-70
2024/01/21 04:44:15;;;;;;;4.18;2.33;;;;;;;;;;5077160;28;20489;-70
2024/01/21 04:46:43;;;;;;;3.55;2.80;;;;;;;;;;5074412;28;20375;-71
2024/01/21 04:49:12;;;;;;;2.42;2.22;;;;;;;;;;5074326;28;20047;-71
2024/01/21 04:51:40;;;;;;;5.00;2.70;;;;;;;;;;5074948;28;20052;-72
2024/01/21 04:54:09;;;;;;;5.50;2.40;;;;;;;;;;5076332;28;20045;-70
2024/01/21 04:56:38;;;;;;;4.22;3.05;;;;;;;;;;5077608;28;20044;-71
2024/01/21 04:59:06;;;;;;;3.35;2.33;;;;;;;;;;5073015;28;20064;-71
2024/01/21 05:01:36;;;;;;;3.92;2.53;;;;;;;;;;5072675;28;20079;-71
2024/01/21 05:04:04;;;;;;;4.95;2.45;;;;;;;;;;5073168;28;20508;-72
2024/01/21 05:06:33;;;;;;;3.60;2.88;;;;;;;;;;5073296;28;20063;-70
2024/01/21 05:09:01;;;;;;;8.45;2.42;;;;;;;;;;5073561;28;20515;-71
2024/01/21 05:11:30;;;;;;;3.22;2.55;;;;;;;;;;5074960;28;20072;-71
2024/01/21 05:13:58;;;;;;;1.80;1.70;;;;;;;;;;5072646;28;20226;-73
2024/01/21 05:16:26;;;;;;;4.65;2.38;;;;;;;;;;5078988;28;20044;-72
2024/01/21 05:18:57;;;;;;;2.70;2.33;;;;;;;;;;5079953;28;20098;-70
2024/01/21 05:21:25;;;;;;;5.70;2.92;;;;;;;;;;5079398;28;20097;-70
2024/01/21 05:23:54;;;;;;;5.32;3.15;;;;;;;;;;5076981;28;20129;-71
2024/01/21 05:26:22;;;;;;;2.15;2.03;;;;;;;;;;5076992;28;20405;-71
2024/01/21 05:28:52;;;;;;;3.45;2.45;;;;;;;;;;5078002;28;20044;-72
2024/01/21 05:31:21;;;;;;;3.40;2.35;;;;;;;;;;5076616;28;20055;-71
2024/01/21 05:33:50;;;;;;;2.47;2.28;;;;;;;;;;5079260;28;20044;-70
2024/01/21 05:36:20;;;;;;;5.15;2.35;;;;;;;;;;5079950;28;20056;-71
2024/01/21 05:38:48;;;;;;;3.03;2.53;;;;;;;;;;5076518;28;20401;-72
2024/01/21 05:41:17;;;;;;;3.47;2.28;;;;;;;;;;5075942;28;20057;-71
2024/01/21 05:43:45;;;;;;;2.47;2.28;;;;;;;;;;5080187;28;20047;-72
2024/01/21 05:46:14;;;;;;;2.45;2.25;;;;;;;;;;5078306;28;20056;-70
2024/01/21 05:48:42;;;;;;;3.70;2.40;;;;;;;;;;5076192;28;20069;-70
2024/01/21 05:51:11;;;;;;;4.25;3.05;;;;;;;;;;5077055;28;20560;-71
2024/01/21 05:53:42;;;;;;;2.83;2.30;;;;;;;;;;5079298;28;20048;-71
2024/01/21 05:56:11;;;;;;;2.85;2.30;;;;;;;;;;5075411;28;20048;-71
2024/01/21 05:58:39;;;;;;;2.17;1.98;;;;;;;;;;5076972;28;20048;-70
2024/01/21 06:01:07;;;;;;;5.97;2.65;;;;;;;;;;5076504;28;20768;-71
2024/01/21 06:03:36;;;;;;;3.10;2.22;;;;;;;;;;5076340;28;20040;-70
2024/01/21 06:06:05;;;;;;;3.20;2.45;;;;;;;;;;5075638;28;20508;-70
2024/01/21 06:08:36;;;;;;;3.22;2.10;;;;;;;;;;5076165;28;20048;-70
2024/01/21 06:11:08;;;;;;;3.50;2.05;;;;;;;;;;5077606;28;20129;-70
2024/01/21 06:13:36;;;;;;;3.72;2.50;;;;;;;;;;5078941;28;20457;-70
2024/01/21 06:16:05;;;;;;;3.17;2.30;;;;;;;;;;5088383;28;20032;-71
2024/01/21 06:18:34;;;;;;;6.72;2.38;;;;;;;;;;5082850;28;20455;-70
2024/01/21 06:21:03;;;;;;;5.65;3.03;;;;;;;;;;5087909;28;20063;-70
2024/01/21 06:23:32;;;;;;;2.40;1.95;;;;;;;;;;5088295;28;20109;-70
2024/01/21 06:26:00;;;;;;;3.55;1.83;;;;;;;;;;5080070;28;20040;-70
2024/01/21 06:28:30;;;;;;;3.45;2.53;;;;;;;;;;5083983;28;20160;-70
2024/01/21 06:30:58;;;;;;;3.50;2.47;;;;;;;;;;5088016;28;20102;-71
2024/01/21 06:33:27;;;;;;;4.05;2.58;;;;;;;;;;5085754;28;20050;-71
2024/01/21 06:35:55;;;;;;;2.22;2.03;;;;;;;;;;5088678;28;20048;-71
2024/01/21 06:38:24;;;;;;;1.65;1.55;;;;;;;;;;5088004;28;20068;-71
2024/01/21 06:40:52;;;;;;;2.17;1.98;;;;;;;;;;5084517;28;20557;-71
2024/01/21 06:43:21;;;;;;;2.75;2.30;;;;;;;;;;5089268;28;20339;-71
2024/01/21 06:45:50;;;;;;;2.03;1.83;;;;;;;;;;5083331;28;20115;-71
2024/01/21 06:48:19;;;;;;;2.22;1.75;;;;;;;;;;5086712;28;20048;-70
2024/01/21 06:50:48;;;;;;;2.72;2.20;;;;;;;;;;5086362;28;20055;-73
2024/01/21 06:53:17;;;;;;;5.50;2.55;;;;;;;;;;5082630;28;20075;-72
2024/01/21 06:55:45;;;;;;;5.13;2.08;;;;;;;;;;5081210;28;20055;-73
2024/01/21 06:58:14;;;;;;;2.33;2.00;;;;;;;;;;5084756;28;20289;-72
2024/01/21 07:00:42;;;;;;;1.83;1.73;;;;;;;;;;5082527;28;20501;-73
2024/01/21 07:03:12;;;;;;;1.85;1.75;;;;;;;;;;5084974;28;20051;-72
2024/01/21 07:05:41;;;;;;;2.63;1.90;;;;;;;;;;5074921;28;20060;-71
2024/01/21 07:08:09;;;;;;;2.35;1.70;;;;;;;;;;5075173;28;20047;-71
2024/01/21 07:10:37;;;;;;;4.50;2.38;;;;;;;;;;5082757;28;20048;-71
2024/01/21 07:13:06;;;;;;;2.53;2.17;;;;;;;;;;5086738;28;20093;-71
2024/01/21 07:15:34;;;;;;;2.58;2.35;;;;;;;;;;5083553;28;20044;-71
2024/01/21 07:18:03;;;;;;;2.70;2.30;;;;;;;;;;5076777;28;20048;-70
2024/01/21 07:20:36;;;;;;;5.60;2.67;;;;;;;;;;5084950;28;20036;-71
2024/01/21 07:23:06;;;;;;;2.35;2.08;;;;;;;;;;5084108;28;20048;-70
2024/01/21 07:25:34;;;;;;;3.13;2.20;;;;;;;;;;5082323;28;20123;-71
2024/01/21 07:28:03;;;;;;;2.95;2.25;;;;;;;;;;5081202;28;20153;-72
2024/01/21 07:30:31;;;;;;;2.30;2.00;;;;;;;;;;5085049;28;20538;-71
2024/01/21 07:32:59;;;;;;;4.55;2.13;;;;;;;;;;5084222;28;20036;-71
2024/01/21 07:35:31;;;;;;;2.63;1.92;;;;;;;;;;5082488;28;20512;-71
2024/01/21 07:38:00;;;;;;;1.88;1.77;;;;;;;;;;5082338;28;20097;-71
2024/01/21 07:40:30;;;;;;;4.00;2.22;;;;;;;;;;5079368;28;20048;-71
2024/01/21 07:42:58;;;;;;;2.70;2.28;;;;;;;;;;5087191;28;20118;-71
2024/01/21 07:45:27;;;;;;;3.65;2.38;;;;;;;;;;5086863;28;20156;-72
2024/01/21 07:47:57;;;;;;;2.30;2.05;;;;;;;;;;5086795;28;20048;-72
2024/01/21 07:50:26;;;;;;;4.32;2.13;;;;;;;;;;5081634;28;20504;-71
2024/01/21 07:52:54;;;;;;;2.53;2.10;;;;;;;;;;5084938;28;20040;-71
2024/01/21 07:55:24;;;;;;;3.58;2.30;;;;;;;;;;5083058;28;20124;-71
2024/01/21 07:57:53;;;;;;;2.10;1.90;;;;;;;;;;5081250;28;20105;-71
2024/01/21 08:00:21;;;;;;;2.58;2.03;;;;;;;;;;5075922;28;20142;-71
2024/01/21 08:02:50;;;;;;;2.38;2.17;;;;;;;;;;5072846;28;20048;-71
2024/01/21 08:05:19;;;;;;;2.45;2.25;;;;;;;;;;5079201;28;20081;-71
2024/01/21 08:07:47;;;;;;;1.75;1.65;;;;;;;;;;5082021;28;20055;-72
2024/01/21 08:10:16;;;;;;;4.47;2.70;;;;;;;;;;5082120;28;20541;-72
2024/01/21 08:12:45;;;;;;;1.83;1.67;;;;;;;;;;5084383;28;20138;-71
2024/01/21 08:15:14;;;;;;;2.30;2.10;;;;;;;;;;5075164;28;20443;-71
2024/01/21 08:17:42;;;;;;;3.28;1.88;;;;;;;;;;5076064;28;20048;-72
2024/01/21 08:20:11;;;;;;;3.30;2.22;;;;;;;;;;5068476;28;20742;-71
2024/01/21 08:22:40;;;;;;;3.50;2.40;;;;;;;;;;5077962;28;20135;-71
2024/01/21 08:25:08;;;;;;;2.22;1.83;;;;;;;;;;5070458;28;20393;-71
2024/01/21 08:27:37;;;;;;;3.60;2.38;;;;;;;;;;5071792;28;20047;-71
2024/01/21 08:30:08;;;;;;;2.78;2.03;;;;;;;;;;5070074;28;20603;-71
2024/01/21 08:32:37;;;;;;;1.90;1.70;;;;;;;;;;5071710;28;20056;-71
2024/01/21 08:35:06;;;;;;;3.25;2.95;;;;;;;;;;5071169;28;20048;-72
2024/01/21 08:37:35;;;;;;;3.90;2.40;;;;;;;;;;5076353;28;20056;-71
2024/01/21 08:40:04;;;;;;;3.92;2.17;;;;;;;;;;5077265;28;20040;-70
2024/01/21 08:42:32;;;;;;;2.25;2.05;;;;;;;;;;5075050;28;20106;-71
2024/01/21 08:45:01;;;;;;;3.80;2.75;;;;;;;;;;5074519;28;20501;-71
2024/01/21 08:47:30;;;;;;;3.97;2.15;;;;;;;;;;5080196;28;20067;-71
2024/01/21 08:49:59;;;;;;;3.67;2.30;;;;;;;;;;5083363;28;20051;-70
2024/01/21 08:52:28;;;;;;;2.38;2.17;;;;;;;;;;5083098;28;20056;-71
2024/01/21 08:54:57;;;;;;;4.72;2.78;;;;;;;;;;5083996;28;20045;-70
2024/01/21 08:57:25;;;;;;;2.75;2.17;;;;;;;;;;5088382;28;20103;-71
2024/01/21 08:59:54;;;;;;;4.60;2.40;;;;;;;;;;5087125;28;20051;-70
2024/01/21 09:02:22;;;;;;;3.22;2.45;;;;;;;;;;5083495;28;20134;-70
2024/01/21 09:04:51;;;;;;;2.55;2.33;;;;;;;;;;5083907;28;20083;-70
2024/01/21 09:07:20;;;;;;;3.90;2.15;;;;;;;;;;5086496;28;20491;-70
2024/01/21 09:09:48;;;;;;;3.42;2.42;;;;;;;;;;5085038;28;20127;-71
2024/01/21 09:12:17;;;;;;;3.40;2.33;;;;;;;;;;5078727;28;20126;-71
2024/01/21 09:14:45;;;;;;;2.67;1.88;;;;;;;;;;5085155;28;20051;-71
2024/01/21 09:17:14;;;;;;;3.97;2.17;;;;;;;;;;5085124;28;20097;-70
2024/01/21 09:19:42;;;;;;;3.45;2.42;;;;;;;;;;5086730;28;20056;-71
2024/01/21 09:22:12;;;;;;;3.97;2.40;;;;;;;;;;5086981;28;20052;-73
2024/01/21 09:24:41;;;;;;;4.53;2.78;;;;;;;;;;5087584;28;20048;-70
2024/01/21 09:27:10;;;;;;;2.28;1.75;;;;;;;;;;5078482;28;20056;-70
2024/01/21 09:29:38;;;;;;;4.38;2.20;;;;;;;;;;5082164;28;20056;-70
2024/01/21 09:32:07;;;;;;;3.17;2.55;;;;;;;;;;5082273;28;20456;-70
2024/01/21 09:34:39;;;;;;;4.30;2.28;;;;;;;;;;5084360;28;20127;-70
2024/01/21 09:37:08;;;;;;;2.10;1.90;;;;;;;;;;5081632;28;20487;-70
2024/01/21 09:39:38;;;;;;;3.33;2.38;;;;;;;;;;5086514;28;20044;-70
2024/01/21 09:42:07;;;;;;;2.17;1.90;;;;;;;;;;5080680;28;20040;-70
2024/01/21 09:44:36;;;;;;;3.22;2.03;;;;;;;;;;5073981;28;20512;-70
2024/01/21 09:47:04;;;;;;;3.60;2.35;;;;;;;;;;5079601;28;20049;-71
2024/01/21 09:49:33;;;;;;;2.83;2.00;;;;;;;;;;5077606;28;20601;-71
2024/01/21 09:52:03;;;;;;;2.28;1.75;;;;;;;;;;5085585;28;20324;-71
2024/01/21 09:54:32;;;;;;;3.28;2.28;;;;;;;;;;5084755;28;20175;-72
2024/01/21 09:57:02;;;;;;;2.92;2.13;;;;;;;;;;5087090;28;20052;-70
2024/01/21 09:59:32;;;;;;;2.38;1.95;;;;;;;;;;5082734;28;20044;-70
2024/01/21 10:02:00;;;;;;;4.00;2.38;;;;;;;;;;5080442;28;20048;-71
2024/01/21 10:04:28;;;;;;;3.65;2.10;;;;;;;;;;5081963;28;20354;-70
2024/01/21 10:06:58;;;;;;;2.53;1.90;;;;;;;;;;5085055;28;20048;-70
2024/01/21 10:09:26;;;;;;;5.57;1.98;;;;;;;;;;5086017;28;20044;-72
2024/01/21 10:11:56;;;;;;;2.78;1.85;;;;;;;;;;5076929;28;20052;-71
2024/01/21 10:14:28;;;;;;;2.03;1.83;;;;;;;;;;5082353;28;20109;-71
2024/01/21 10:16:56;;;;;;;2.08;1.50;;;;;;;;;;5078328;28;20052;-71
2024/01/21 10:19:28;;;;;;;3.72;2.10;;;;;;;;;;5079359;28;20113;-70
2024/01/21 10:22:08;;;;;;;3.20;1.77;;;;;;;;;;5084837;28;20055;-70
2024/01/21 10:24:38;;;;;;;2.80;2.03;;;;;;;;;;5086062;28;20109;-70
2024/01/21 10:27:08;;;;;;;2.95;1.90;;;;;;;;;;5080532;28;20505;-72
2024/01/21 10:29:41;;;;;;;4.35;2.50;;;;;;;;;;5084390;28;20040;-71
2024/01/21 10:32:10;;;;;;;3.58;2.00;;;;;;;;;;5082555;28;20120;-72
2024/01/21 10:34:39;;;;;;;2.85;1.92;;;;;;;;;;5087679;28;20130;-71
2024/01/21 10:37:08;;;;;;;2.97;2.00;;;;;;;;;;5079566;28;20076;-71
2024/01/21 10:39:37;;;;;;;3.72;2.13;;;;;;;;;;5082477;28;20117;-71
2024/01/21 10:42:07;;;;;;;2.35;1.98;;;;;;;;;;5081960;28;20123;-71
2024/01/21 10:44:36;;;;;;;4.90;1.80;;;;;;;;;;5087843;28;20076;-74
2024/01/21 10:47:06;;;;;;;2.90;2.10;;;;;;;;;;5078564;28;20491;-71
2024/01/21 10:49:35;;;;;;;4.25;1.98;;;;;;;;;;5084382;28;20077;-70
2024/01/21 10:52:03;;;;;;;2.33;1.80;;;;;;;;;;5083891;28;20063;-71
2024/01/21 10:54:32;;;;;;;1.92;1.58;;;;;;;;;;5082523;28;20044;-72
2024/01/21 10:57:01;;;;;;;3.85;2.20;;;;;;;;;;5084134;28;20132;-71
2024/01/21 10:59:31;;;;;;;2.63;1.80;;;;;;;;;;5085102;28;20040;-69
2024/01/21 11:01:59;;;;;;;4.60;2.28;;;;;;;;;;5082366;28;20040;-71
2024/01/21 11:04:29;;;;;;;3.85;2.17;;;;;;;;;;5082950;28;20416;-69
2024/01/21 11:06:58;;;;;;;4.80;2.13;;;;;;;;;;5082123;28;20048;-70
2024/01/21 11:09:29;;;;;;;7.93;2.63;;;;;;;;;;5079675;28;20048;-70
2024/01/21 11:11:57;;;;;;;3.08;2.28;;;;;;;;;;5082063;28;20048;-70
2024/01/21 11:14:30;;;;;;;3.50;2.40;;;;;;;;;;5080046;28;20101;-69
2024/01/21 11:16:58;;;;;;;3.85;2.75;;;;;;;;;;5085578;28;20032;-69
2024/01/21 11:19:38;;;;;;;5.13;2.35;;;;;;;;;;5077264;28;20151;-70
2024/01/21 11:22:11;;;;;;;4.38;2.55;;;;;;;;;;5085262;28;20051;-70
2024/01/21 11:24:43;;;;;;;4.72;2.75;;;;;;;;;;5084362;28;20074;-70
2024/01/21 11:27:19;;;;;;;4.53;2.25;;;;;;;;;;5083271;28;20055;-70
2024/01/21 11:29:49;;;;;;;4.18;2.35;;;;;;;;;;5082038;28;20082;-74
2024/01/21 11:32:21;;;;;;;3.35;2.25;;;;;;;;;;5086313;28;20113;-71
2024/01/21 11:34:51;;;;;;;3.67;2.35;;;;;;;;;;5078260;28;20045;-71
2024/01/21 11:37:19;;;;;;;3.45;2.55;;;;;;;;;;5080600;28;20155;-70
2024/01/21 11:39:49;;;;;;;3.85;2.10;;;;;;;;;;5085492;28;20541;-71
2024/01/21 11:42:17;;;;;;;4.75;2.25;;;;;;;;;;5086108;28;20056;-73
2024/01/21 11:44:46;;;;;;;6.45;2.42;;;;;;;;;;5082404;28;20052;-73
2024/01/21 11:47:14;;;;;;;3.67;2.47;;;;;;;;;;5082199;28;20051;-71
2024/01/21 11:49:43;;;;;;;6.03;2.25;;;;;;;;;;5082238;28;21307;-72
2024/01/21 11:52:14;;;;;;;4.78;2.20;;;;;;;;;;5083254;28;20052;-73
2024/01/21 11:54:43;;;;;;;7.00;2.03;;;;;;;;;;5085762;28;20054;-74
2024/01/21 11:57:11;;;;;;;2.88;1.70;;;;;;;;;;5074229;28;20062;-72
2024/01/21 11:59:40;;;;;;;3.40;2.00;;;;;;;;;;5081898;28;20508;-73
2024/01/21 12:02:09;;;;;;;3.08;1.95;;;;;;;;;;5077781;28;20044;-73
2024/01/21 12:04:38;;;;;;;4.03;2.03;;;;;;;;;;5083064;28;20102;-73
2024/01/21 12:07:08;;;;;;;2.25;2.05;;;;;;;;;;5081609;28;20087;-73
2024/01/21 12:09:38;;;;;;;3.08;2.13;;;;;;;;;;5085836;28;20048;-74
2024/01/21 12:12:08;;;;;;;2.13;1.70;;;;;;;;;;5083787;28;20048;-73
2024/01/21 12:14:36;;;;;;;4.38;2.00;;;;;;;;;;5077767;28;20078;-73
2024/01/21 12:17:05;;;;;;;3.33;1.90;;;;;;;;;;5082220;28;20040;-74
2024/01/21 12:19:33;;;;;;;3.28;2.38;;;;;;;;;;5074274;28;20201;-73
2024/01/21 12:22:02;;;;;;;2.78;2.15;;;;;;;;;;5084166;28;20047;-73
2024/01/21 12:24:30;;;;;;;5.45;2.13;;;;;;;;;;5087496;28;20428;-73
2024/01/21 12:27:01;;;;;;;3.03;1.92;;;;;;;;;;5082076;28;20540;-73
2024/01/21 12:29:37;;;;;;;7.57;2.55;;;;;;;;;;5083324;28;20109;-73
2024/01/21 12:32:06;;;;;;;5.10;2.85;;;;;;;;;;5086946;28;20044;-72
2024/01/21 12:34:34;;;;;;;7.95;2.55;;;;;;;;;;5078781;28;20040;-73
2024/01/21 12:37:03;;;;;;;4.72;2.08;;;;;;;;;;5078543;28;20047;-73
2024/01/21 12:39:31;;;;;;;5.50;2.17;;;;;;;;;;5087405;28;20048;-73
2024/01/21 12:42:01;;;;;;;4.53;2.67;;;;;;;;;;5082738;28;20047;-72
2024/01/21 12:44:30;;;;;;;6.15;2.67;;;;;;;;;;5086614;28;20044;-73
2024/01/21 12:46:59;;;;;;;3.22;2.20;;;;;;;;;;5084920;28;20052;-73
2024/01/21 12:49:27;;;;;;;7.03;2.45;;;;;;;;;;5085717;28;20047;-74
2024/01/21 12:51:55;;;;;;;3.55;2.35;;;;;;;;;;5085774;28;20046;-73
2024/01/21 12:54:24;;;;;;;3.63;2.00;;;;;;;;;;5086501;28;20048;-72
2024/01/21 12:56:52;;;;;;;8.85;2.67;;;;;;;;;;5088874;28;20435;-73
2024/01/21 12:59:22;;;;;;;5.88;2.35;;;;;;;;;;5085196;28;20490;-73
2024/01/21 13:01:50;;;;;;;2.97;2.28;;;;;;;;;;5081771;28;20107;-73
2024/01/21 13:04:19;;;;;;;3.13;2.15;;;;;;;;;;5085026;28;20144;-73
2024/01/21 13:06:48;;;;;;;4.18;2.50;;;;;;;;;;5086212;28;20489;-73
2024/01/21 13:09:17;;;;;;;3.35;2.50;;;;;;;;;;5084780;28;20432;-73
2024/01/21 13:11:45;;;;;;;6.60;2.40;;;;;;;;;;5088073;28;20147;-73
2024/01/21 13:14:13;;;;;;;13.02;2.53;;;;;;;;;;5087631;28;20055;-73
2024/01/21 13:16:53;;;;;;;7.57;2.30;;;;;;;;;;5087401;28;20136;-73
2024/01/21 13:19:21;;;;;;;5.15;2.42;;;;;;;;;;5074122;28;20040;-73
2024/01/21 13:21:50;;;;;;;3.78;2.40;;;;;;;;;;5084407;28;20117;-72
2024/01/21 13:24:19;;;;;;;7.85;2.63;;;;;;;;;;5078075;28;20059;-74
2024/01/21 13:26:52;;;;;;;11.15;2.83;;;;;;;;;;5084364;28;20044;-72
2024/01/21 13:32:04;;;;;;;5.13;2.58;;;;;;;;;;5029617;28;20123;-71
2024/01/21 13:34:33;;;;;;;7.43;2.20;;;;;;;;;;5082803;28;20093;-72
2024/01/21 13:37:01;;;;;;;6.47;2.20;;;;;;;;;;5087513;28;20393;-71
2024/01/21 13:39:30;;;;;;;7.57;2.25;;;;;;;;;;5086121;28;20048;-73
2024/01/21 13:41:58;;;;;;;11.20;2.25;;;;;;;;;;5083978;28;20044;-72
2024/01/21 13:44:30;;;;;;;8.15;2.92;;;;;;;;;;5085467;28;20044;-71
2024/01/21 13:47:01;;;;;;;2.05;1.77;;;;;;;;;;5086086;28;20488;-73
2024/01/21 13:49:31;;;;;;;2.53;1.75;;;;;;;;;;5086099;28;20056;-73
2024/01/21 13:52:01;;;;;;;3.30;1.70;;;;;;;;;;5085544;28;20044;-72
2024/01/21 13:54:30;;;;;;;5.82;1.70;;;;;;;;;;5090580;28;20093;-71
2024/01/21 13:56:58;;;;;;;3.53;1.75;;;;;;;;;;5080052;28;20105;-71
2024/01/21 13:59:27;;;;;;;6.93;2.10;;;;;;;;;;5085374;28;20432;-73
2024/01/21 14:01:55;;;;;;;3.83;1.95;;;;;;;;;;5075860;28;20455;-72
2024/01/21 14:04:37;;;;;;;3.97;1.95;;;;;;;;;;5081286;28;20056;-73
2024/01/21 14:07:06;;;;;;;6.63;1.80;;;;;;;;;;5088041;28;20105;-73
2024/01/21 14:09:35;;;;;;;5.75;2.22;;;;;;;;;;5079537;28;20109;-72
2024/01/21 14:12:04;;;;;;;6.93;2.25;;;;;;;;;;5080490;28;20056;-73
2024/01/21 14:14:32;;;;;;;3.80;2.10;;;;;;;;;;5088394;28;20051;-72
2024/01/21 14:17:01;;;;;;;4.30;1.98;;;;;;;;;;5086871;28;20098;-72
2024/01/21 14:19:29;;;;;;;7.47;2.35;;;;;;;;;;5089627;28;20474;-72
2024/01/21 14:21:59;;;;;;;13.32;2.90;;;;;;;;;;5083667;28;20097;-73
2024/01/21 14:24:28;;;;;;;4.03;1.98;;;;;;;;;;5082359;28;20074;-73
2024/01/21 14:26:56;;;;;;;4.57;2.45;;;;;;;;;;5084734;28;20040;-74
2024/01/21 14:29:27;;;;;;;8.18;2.55;;;;;;;;;;5082478;28;20127;-73
2024/01/21 14:31:55;;;;;;;8.13;2.55;;;;;;;;;;5085620;28;20056;-73
2024/01/21 14:34:24;;;;;;;5.55;2.58;;;;;;;;;;5087302;28;20390;-73
2024/01/21 14:36:52;;;;;;;4.68;2.65;;;;;;;;;;5085172;28;20044;-73
2024/01/21 14:39:23;;;;;;;4.78;2.22;;;;;;;;;;5086446;28;20045;-74
2024/01/21 14:41:52;;;;;;;7.40;2.75;;;;;;;;;;5086812;28;20079;-74
2024/01/21 14:44:20;;;;;;;9.70;4.07;;;;;;;;;;5091781;28;20497;-73
2024/01/21 14:46:49;;;;;;;4.00;2.30;;;;;;;;;;5079359;28;20067;-74
2024/01/21 14:49:17;;;;;;;7.47;2.13;;;;;;;;;;5085317;28;20051;-75
2024/01/21 14:51:45;;;;;;;6.93;2.78;;;;;;;;;;5084995;28;20044;-75
2024/01/21 14:54:14;;;;;;;5.70;2.42;;;;;;;;;;5083435;28;20055;-75
2024/01/21 14:56:44;;;;;;;4.93;2.30;;;;;;;;;;5080244;28;20056;-75